sensor_id;sensor_type;location;lat;lon;timestamp;pressure;altitude;pressure_sealevel;temperature;humidity
28181;BME280;15464;50.988;10.318;2023-10-31T00:02:09;97009.44;;;11.44;100.00
28181;BME280;15464;50.988;10.318;2023-10-31T00:04:36;97007.28;;;11.48;100.00
28181;BME280;15464;50.988;10.318;2023-10-31T00:07:04;97019.63;;;11.41;100.00
28181;BME280;15464;50.988;10.318;2023-10-31T00:09:30;97008.38;;;11.39;100.00
28181;BME280;15464;50.988;10.318;2023-10-31T00:11:58;97011.84;;;11.39;100.00
28181;BME280;15464;50.988;10.318;2023-10-31T00:14:25;97010.19;;;11.38;100.00
28181;BME280;15464;50.988;10.318;2023-10-31T00:16:58;97012.50;;;11.41;100.00
28181;BME280;15464;50.988;10.318;2023-10-31T00:19:25;97016.31;;;11.39;100.00
28181;BME280;15464;50.988;10.318;2023-10-31T00:21:51;97015.31;;;11.40;100.00
28181;BME280;15464;50.988;10.318;2023-10-31T00:24:18;97017.41;;;11.44;100.00
28181;BME280;15464;50.988;10.318;2023-10-31T00:26:45;97014.16;;;11.42;100.00
28181;BME280;15464;50.988;10.318;2023-10-31T00:29:12;97021.06;;;11.43;100.00
28181;BME280;15464;50.988;10.318;2023-10-31T00:31:38;97017.25;;;11.46;100.00
28181;BME280;15464;50.988;10.318;2023-10-31T00:34:08;97005.78;;;11.45;100.00
28181;BME280;15464;50.988;10.318;2023-10-31T00:36:35;97014.84;;;11.51;100.00
28181;BME280;15464;50.988;10.318;2023-10-31T00:39:02;97008.72;;;11.50;100.00
28181;BME280;15464;50.988;10.318;2023-10-31T00:41:29;97006.88;;;11.51;100.00
28181;BME280;15464;50.988;10.318;2023-10-31T00:43:56;97008.94;;;11.49;100.00
28181;BME280;15464;50.988;10.318;2023-10-31T00:46:23;97013.19;;;11.50;100.00
28181;BME280;15464;50.988;10.318;2023-10-31T00:48:50;97000.75;;;11.50;100.00
28181;BME280;15464;50.988;10.318;2023-10-31T00:51:16;96998.31;;;11.49;100.00
28181;BME280;15464;50.988;10.318;2023-10-31T00:53:43;97005.25;;;11.50;100.00
28181;BME280;15464;50.988;10.318;2023-10-31T00:56:10;97000.56;;;11.52;100.00
28181;BME280;15464;50.988;10.318;2023-10-31T00:58:37;97008.72;;;11.50;100.00
28181;BME280;15464;50.988;10.318;2023-10-31T01:01:04;96999.75;;;11.51;100.00
28181;BME280;15464;50.988;10.318;2023-10-31T01:03:30;97001.97;;;11.48;100.00
28181;BME280;15464;50.988;10.318;2023-10-31T01:05:57;97004.22;;;11.51;100.00
28181;BME280;15464;50.988;10.318;2023-10-31T01:08:24;97005.25;;;11.50;100.00
28181;BME280;15464;50.988;10.318;2023-10-31T01:10:51;96995.25;;;11.52;100.00
28181;BME280;15464;50.988;10.318;2023-10-31T01:13:17;96998.09;;;11.50;100.00
28181;BME280;15464;50.988;10.318;2023-10-31T01:15:45;96997.94;;;11.52;100.00
28181;BME280;15464;50.988;10.318;2023-10-31T01:18:12;96989.13;;;11.51;100.00
28181;BME280;15464;50.988;10.318;2023-10-31T01:20:38;96990.78;;;11.52;100.00
28181;BME280;15464;50.988;10.318;2023-10-31T01:23:05;96991.88;;;11.58;100.00
28181;BME280;15464;50.988;10.318;2023-10-31T01:25:32;96991.88;;;11.58;100.00
28181;BME280;15464;50.988;10.318;2023-10-31T01:27:59;96997.34;;;11.56;100.00
28181;BME280;15464;50.988;10.318;2023-10-31T01:30:25;96995.75;;;11.55;100.00
28181;BME280;15464;50.988;10.318;2023-10-31T01:32:52;96995.91;;;11.54;100.00
28181;BME280;15464;50.988;10.318;2023-10-31T01:35:19;96994.53;;;11.58;100.00
28181;BME280;15464;50.988;10.318;2023-10-31T01:37:46;96987.13;;;11.53;100.00
28181;BME280;15464;50.988;10.318;2023-10-31T01:40:13;96975.03;;;11.51;100.00
28181;BME280;15464;50.988;10.318;2023-10-31T01:42:40;96973.59;;;11.48;100.00
28181;BME280;15464;50.988;10.318;2023-10-31T01:45:07;96971.56;;;11.50;100.00
28181;BME280;15464;50.988;10.318;2023-10-31T01:47:34;96970.56;;;11.51;100.00
28181;BME280;15464;50.988;10.318;2023-10-31T01:50:01;96974.41;;;11.49;100.00
28181;BME280;15464;50.988;10.318;2023-10-31T01:52:28;96975.16;;;11.43;100.00
28181;BME280;15464;50.988;10.318;2023-10-31T01:54:59;96972.75;;;11.48;100.00
28181;BME280;15464;50.988;10.318;2023-10-31T01:57:27;96966.97;;;11.44;100.00
28181;BME280;15464;50.988;10.318;2023-10-31T01:59:53;96963.72;;;11.42;100.00
28181;BME280;15464;50.988;10.318;2023-10-31T02:02:22;96962.50;;;11.45;100.00
28181;BME280;15464;50.988;10.318;2023-10-31T02:04:50;96958.00;;;11.45;100.00
28181;BME280;15464;50.988;10.318;2023-10-31T02:07:17;96973.13;;;11.45;100.00
28181;BME280;15464;50.988;10.318;2023-10-31T02:09:44;96975.41;;;11.48;100.00
28181;BME280;15464;50.988;10.318;2023-10-31T02:12:11;96963.78;;;11.49;100.00
28181;BME280;15464;50.988;10.318;2023-10-31T02:14:37;96963.16;;;11.47;100.00
28181;BME280;15464;50.988;10.318;2023-10-31T02:17:04;96966.63;;;11.47;100.00
28181;BME280;15464;50.988;10.318;2023-10-31T02:19:31;96968.06;;;11.50;100.00
28181;BME280;15464;50.988;10.318;2023-10-31T02:21:57;96983.38;;;11.48;100.00
28181;BME280;15464;50.988;10.318;2023-10-31T02:24:25;96975.94;;;11.43;100.00
28181;BME280;15464;50.988;10.318;2023-10-31T02:26:52;96974.75;;;11.46;100.00
28181;BME280;15464;50.988;10.318;2023-10-31T02:29:18;96981.72;;;11.47;100.00
28181;BME280;15464;50.988;10.318;2023-10-31T02:31:45;96984.28;;;11.40;100.00
28181;BME280;15464;50.988;10.318;2023-10-31T02:34:13;96981.19;;;11.37;100.00
28181;BME280;15464;50.988;10.318;2023-10-31T02:36:40;96977.16;;;11.41;100.00
28181;BME280;15464;50.988;10.318;2023-10-31T02:39:07;96979.53;;;11.36;100.00
28181;BME280;15464;50.988;10.318;2023-10-31T02:41:34;96977.34;;;11.39;100.00
28181;BME280;15464;50.988;10.318;2023-10-31T02:44:00;96979.53;;;11.36;100.00
28181;BME280;15464;50.988;10.318;2023-10-31T02:46:27;96979.34;;;11.37;100.00
28181;BME280;15464;50.988;10.318;2023-10-31T02:48:54;96988.94;;;11.38;100.00
28181;BME280;15464;50.988;10.318;2023-10-31T02:51:21;96984.19;;;11.33;100.00
28181;BME280;15464;50.988;10.318;2023-10-31T02:53:48;96989.06;;;11.30;100.00
28181;BME280;15464;50.988;10.318;2023-10-31T02:56:14;96999.13;;;11.35;100.00
28181;BME280;15464;50.988;10.318;2023-10-31T02:58:41;96994.56;;;11.28;100.00
28181;BME280;15464;50.988;10.318;2023-10-31T03:01:08;97013.13;;;11.28;100.00
28181;BME280;15464;50.988;10.318;2023-10-31T03:03:34;97016.44;;;11.30;100.00
28181;BME280;15464;50.988;10.318;2023-10-31T03:06:01;97021.00;;;11.22;100.00
28181;BME280;15464;50.988;10.318;2023-10-31T03:08:28;97023.38;;;11.17;100.00
28181;BME280;15464;50.988;10.318;2023-10-31T03:10:55;97034.00;;;11.17;100.00
28181;BME280;15464;50.988;10.318;2023-10-31T03:13:21;97031.44;;;11.23;100.00
28181;BME280;15464;50.988;10.318;2023-10-31T03:15:49;97040.47;;;11.14;100.00
28181;BME280;15464;50.988;10.318;2023-10-31T03:18:16;97044.31;;;11.12;100.00
28181;BME280;15464;50.988;10.318;2023-10-31T03:20:44;97038.91;;;11.05;100.00
28181;BME280;15464;50.988;10.318;2023-10-31T03:23:12;97044.94;;;10.99;100.00
28181;BME280;15464;50.988;10.318;2023-10-31T03:25:39;97049.94;;;10.94;100.00
28181;BME280;15464;50.988;10.318;2023-10-31T03:28:17;97055.25;;;10.94;100.00
28181;BME280;15464;50.988;10.318;2023-10-31T03:30:48;97057.63;;;10.89;100.00
28181;BME280;15464;50.988;10.318;2023-10-31T03:33:15;97058.63;;;10.88;100.00
28181;BME280;15464;50.988;10.318;2023-10-31T03:35:45;97075.19;;;10.90;100.00
28181;BME280;15464;50.988;10.318;2023-10-31T03:38:13;97084.97;;;10.89;100.00
28181;BME280;15464;50.988;10.318;2023-10-31T03:40:40;97078.00;;;10.88;100.00
28181;BME280;15464;50.988;10.318;2023-10-31T03:43:08;97080.66;;;10.88;100.00
28181;BME280;15464;50.988;10.318;2023-10-31T03:45:34;97095.94;;;10.86;100.00
28181;BME280;15464;50.988;10.318;2023-10-31T03:48:01;97101.59;;;10.83;100.00
28181;BME280;15464;50.988;10.318;2023-10-31T03:50:28;97100.47;;;10.78;100.00
28181;BME280;15464;50.988;10.318;2023-10-31T03:52:55;97111.09;;;10.78;100.00
28181;BME280;15464;50.988;10.318;2023-10-31T03:55:22;97105.06;;;10.84;100.00
28181;BME280;15464;50.988;10.318;2023-10-31T03:57:48;97110.38;;;10.84;100.00
28181;BME280;15464;50.988;10.318;2023-10-31T04:00:15;97120.69;;;10.79;100.00
28181;BME280;15464;50.988;10.318;2023-10-31T04:02:42;97121.03;;;10.76;100.00
28181;BME280;15464;50.988;10.318;2023-10-31T04:05:09;97117.75;;;10.74;100.00
28181;BME280;15464;50.988;10.318;2023-10-31T04:07:36;97122.03;;;10.75;100.00
28181;BME280;15464;50.988;10.318;2023-10-31T04:10:03;97121.81;;;10.62;100.00
28181;BME280;15464;50.988;10.318;2023-10-31T04:12:30;97122.19;;;10.50;100.00
28181;BME280;15464;50.988;10.318;2023-10-31T04:14:56;97121.31;;;10.58;100.00
28181;BME280;15464;50.988;10.318;2023-10-31T04:17:23;97125.25;;;10.62;100.00
28181;BME280;15464;50.988;10.318;2023-10-31T04:19:50;97135.41;;;10.59;100.00
28181;BME280;15464;50.988;10.318;2023-10-31T04:22:17;97134.25;;;10.61;100.00
28181;BME280;15464;50.988;10.318;2023-10-31T04:24:44;97145.31;;;10.65;100.00
28181;BME280;15464;50.988;10.318;2023-10-31T04:27:10;97141.06;;;10.56;100.00
28181;BME280;15464;50.988;10.318;2023-10-31T04:29:37;97146.06;;;10.50;100.00
28181;BME280;15464;50.988;10.318;2023-10-31T04:32:04;97143.41;;;10.50;100.00
28181;BME280;15464;50.988;10.318;2023-10-31T04:34:31;97147.75;;;10.43;100.00
28181;BME280;15464;50.988;10.318;2023-10-31T04:36:58;97146.28;;;10.41;100.00
28181;BME280;15464;50.988;10.318;2023-10-31T04:39:25;97146.94;;;10.43;100.00
28181;BME280;15464;50.988;10.318;2023-10-31T04:41:51;97153.13;;;10.27;100.00
28181;BME280;15464;50.988;10.318;2023-10-31T04:44:18;97156.44;;;10.29;100.00
28181;BME280;15464;50.988;10.318;2023-10-31T04:46:45;97153.50;;;10.24;100.00
28181;BME280;15464;50.988;10.318;2023-10-31T04:49:12;97159.47;;;10.18;100.00
28181;BME280;15464;50.988;10.318;2023-10-31T04:51:38;97162.59;;;10.13;100.00
28181;BME280;15464;50.988;10.318;2023-10-31T04:54:05;97158.50;;;10.11;100.00
28181;BME280;15464;50.988;10.318;2023-10-31T04:56:33;97154.34;;;10.08;100.00
28181;BME280;15464;50.988;10.318;2023-10-31T04:59:00;97154.72;;;10.05;100.00
28181;BME280;15464;50.988;10.318;2023-10-31T05:01:27;97151.88;;;10.07;100.00
28181;BME280;15464;50.988;10.318;2023-10-31T05:03:54;97161.69;;;9.98;100.00
28181;BME280;15464;50.988;10.318;2023-10-31T05:06:36;97161.84;;;9.97;100.00
28181;BME280;15464;50.988;10.318;2023-10-31T05:09:03;97170.31;;;9.92;100.00
28181;BME280;15464;50.988;10.318;2023-10-31T05:11:30;97167.16;;;9.89;100.00
28181;BME280;15464;50.988;10.318;2023-10-31T05:13:57;97173.78;;;9.93;100.00
28181;BME280;15464;50.988;10.318;2023-10-31T05:16:24;97179.41;;;9.90;100.00
28181;BME280;15464;50.988;10.318;2023-10-31T05:18:50;97184.38;;;9.85;100.00
28181;BME280;15464;50.988;10.318;2023-10-31T05:21:20;97183.41;;;9.78;100.00
28181;BME280;15464;50.988;10.318;2023-10-31T05:23:47;97195.97;;;9.76;100.00
28181;BME280;15464;50.988;10.318;2023-10-31T05:26:14;97190.84;;;9.82;100.00
28181;BME280;15464;50.988;10.318;2023-10-31T05:28:40;97193.66;;;9.81;100.00
28181;BME280;15464;50.988;10.318;2023-10-31T05:31:07;97190.53;;;9.77;100.00
28181;BME280;15464;50.988;10.318;2023-10-31T05:33:34;97194.66;;;9.80;100.00
28181;BME280;15464;50.988;10.318;2023-10-31T05:36:01;97191.34;;;9.78;100.00
28181;BME280;15464;50.988;10.318;2023-10-31T05:38:28;97189.03;;;9.75;100.00
28181;BME280;15464;50.988;10.318;2023-10-31T05:40:55;97190.69;;;9.76;100.00
28181;BME280;15464;50.988;10.318;2023-10-31T05:43:22;97201.94;;;9.69;100.00
28181;BME280;15464;50.988;10.318;2023-10-31T05:45:48;97197.16;;;9.65;100.00
28181;BME280;15464;50.988;10.318;2023-10-31T05:48:15;97204.63;;;9.61;100.00
28181;BME280;15464;50.988;10.318;2023-10-31T05:50:42;97204.94;;;9.58;100.00
28181;BME280;15464;50.988;10.318;2023-10-31T05:53:09;97211.59;;;9.54;100.00
28181;BME280;15464;50.988;10.318;2023-10-31T05:55:39;97208.94;;;9.54;100.00
28181;BME280;15464;50.988;10.318;2023-10-31T05:58:06;97211.25;;;9.49;100.00
28181;BME280;15464;50.988;10.318;2023-10-31T06:00:33;97218.00;;;9.44;100.00
28181;BME280;15464;50.988;10.318;2023-10-31T06:03:00;97213.91;;;9.49;100.00
28181;BME280;15464;50.988;10.318;2023-10-31T06:05:26;97220.19;;;9.48;100.00
28181;BME280;15464;50.988;10.318;2023-10-31T06:07:53;97211.56;;;9.46;100.00
28181;BME280;15464;50.988;10.318;2023-10-31T06:10:20;97211.75;;;9.45;100.00
28181;BME280;15464;50.988;10.318;2023-10-31T06:12:48;97215.22;;;9.45;100.00
28181;BME280;15464;50.988;10.318;2023-10-31T06:15:14;97225.13;;;9.43;100.00
28181;BME280;15464;50.988;10.318;2023-10-31T06:17:41;97232.28;;;9.43;100.00
28181;BME280;15464;50.988;10.318;2023-10-31T06:20:09;97228.78;;;9.42;100.00
28181;BME280;15464;50.988;10.318;2023-10-31T06:22:36;97242.84;;;9.43;100.00
28181;BME280;15464;50.988;10.318;2023-10-31T06:25:03;97237.06;;;9.47;100.00
28181;BME280;15464;50.988;10.318;2023-10-31T06:27:30;97242.34;;;9.47;100.00
28181;BME280;15464;50.988;10.318;2023-10-31T06:30:04;97240.69;;;9.46;100.00
28181;BME280;15464;50.988;10.318;2023-10-31T06:32:46;97251.28;;;9.46;100.00
28181;BME280;15464;50.988;10.318;2023-10-31T06:35:13;97249.63;;;9.53;100.00
28181;BME280;15464;50.988;10.318;2023-10-31T06:37:40;97249.94;;;9.50;100.00
28181;BME280;15464;50.988;10.318;2023-10-31T06:40:07;97253.59;;;9.57;100.00
28181;BME280;15464;50.988;10.318;2023-10-31T06:42:35;97263.19;;;9.58;100.00
28181;BME280;15464;50.988;10.318;2023-10-31T06:45:02;97262.19;;;9.59;100.00
28181;BME280;15464;50.988;10.318;2023-10-31T06:47:30;97262.69;;;9.63;100.00
28181;BME280;15464;50.988;10.318;2023-10-31T06:49:57;97259.19;;;9.62;100.00
28181;BME280;15464;50.988;10.318;2023-10-31T06:52:23;97261.84;;;9.62;100.00
28181;BME280;15464;50.988;10.318;2023-10-31T06:54:50;97271.28;;;9.65;100.00
28181;BME280;15464;50.988;10.318;2023-10-31T06:57:17;97267.50;;;9.67;100.00
28181;BME280;15464;50.988;10.318;2023-10-31T06:59:44;97267.50;;;9.67;100.00
28181;BME280;15464;50.988;10.318;2023-10-31T07:02:10;97273.44;;;9.69;100.00
28181;BME280;15464;50.988;10.318;2023-10-31T07:04:37;97276.06;;;9.69;100.00
28181;BME280;15464;50.988;10.318;2023-10-31T07:07:04;97272.78;;;9.67;100.00
28181;BME280;15464;50.988;10.318;2023-10-31T07:09:30;97281.72;;;9.66;100.00
28181;BME280;15464;50.988;10.318;2023-10-31T07:11:57;97288.31;;;9.70;100.00
28181;BME280;15464;50.988;10.318;2023-10-31T07:14:24;97290.31;;;9.68;100.00
28181;BME280;15464;50.988;10.318;2023-10-31T07:16:50;97301.06;;;9.67;100.00
28181;BME280;15464;50.988;10.318;2023-10-31T07:19:17;97295.13;;;9.65;100.00
28181;BME280;15464;50.988;10.318;2023-10-31T07:21:44;97303.53;;;9.68;100.00
28181;BME280;15464;50.988;10.318;2023-10-31T07:24:11;97306.53;;;9.74;100.00
28181;BME280;15464;50.988;10.318;2023-10-31T07:26:38;97316.09;;;9.75;100.00
28181;BME280;15464;50.988;10.318;2023-10-31T07:29:05;97317.09;;;9.82;100.00
28181;BME280;15464;50.988;10.318;2023-10-31T07:31:32;97320.09;;;9.87;100.00
28181;BME280;15464;50.988;10.318;2023-10-31T07:33:59;97333.84;;;9.90;100.00
28181;BME280;15464;50.988;10.318;2023-10-31T07:36:26;97326.19;;;9.87;100.00
28181;BME280;15464;50.988;10.318;2023-10-31T07:38:53;97315.81;;;9.86;100.00
28181;BME280;15464;50.988;10.318;2023-10-31T07:41:19;97322.56;;;9.88;100.00
28181;BME280;15464;50.988;10.318;2023-10-31T07:43:46;97321.41;;;9.91;100.00
28181;BME280;15464;50.988;10.318;2023-10-31T07:46:13;97325.72;;;9.92;100.00
28181;BME280;15464;50.988;10.318;2023-10-31T07:48:40;97329.69;;;9.96;100.00
28181;BME280;15464;50.988;10.318;2023-10-31T07:51:07;97325.22;;;9.96;100.00
28181;BME280;15464;50.988;10.318;2023-10-31T07:53:33;97331.66;;;10.02;100.00
28181;BME280;15464;50.988;10.318;2023-10-31T07:56:00;97324.38;;;9.96;100.00
28181;BME280;15464;50.988;10.318;2023-10-31T07:58:27;97328.38;;;9.92;100.00
28181;BME280;15464;50.988;10.318;2023-10-31T08:00:54;97332.50;;;9.94;100.00
28181;BME280;15464;50.988;10.318;2023-10-31T08:03:20;97339.97;;;9.99;100.00
28181;BME280;15464;50.988;10.318;2023-10-31T08:05:47;97336.66;;;9.97;100.00
28181;BME280;15464;50.988;10.318;2023-10-31T08:08:14;97353.84;;;10.01;100.00
28181;BME280;15464;50.988;10.318;2023-10-31T08:10:41;97353.84;;;10.01;100.00
28181;BME280;15464;50.988;10.318;2023-10-31T08:13:07;97354.19;;;9.98;100.00
28181;BME280;15464;50.988;10.318;2023-10-31T08:15:34;97355.84;;;9.99;100.00
28181;BME280;15464;50.988;10.318;2023-10-31T08:18:01;97355.03;;;9.98;100.00
28181;BME280;15464;50.988;10.318;2023-10-31T08:20:28;97370.72;;;10.00;100.00
28181;BME280;15464;50.988;10.318;2023-10-31T08:22:59;97363.78;;;10.07;100.00
28181;BME280;15464;50.988;10.318;2023-10-31T08:25:26;97371.41;;;10.10;100.00
28181;BME280;15464;50.988;10.318;2023-10-31T08:27:53;97359.66;;;10.21;100.00
28181;BME280;15464;50.988;10.318;2023-10-31T08:30:19;97367.47;;;10.22;100.00
28181;BME280;15464;50.988;10.318;2023-10-31T08:32:46;97363.63;;;10.25;100.00
28181;BME280;15464;50.988;10.318;2023-10-31T08:35:13;97369.78;;;10.17;100.00
28181;BME280;15464;50.988;10.318;2023-10-31T08:37:41;97374.41;;;10.23;100.00
28181;BME280;15464;50.988;10.318;2023-10-31T08:40:08;97378.53;;;10.26;100.00
28181;BME280;15464;50.988;10.318;2023-10-31T08:42:34;97372.41;;;10.33;100.00
28181;BME280;15464;50.988;10.318;2023-10-31T08:45:01;97382.69;;;10.36;100.00
28181;BME280;15464;50.988;10.318;2023-10-31T08:47:28;97379.38;;;10.34;100.00
28181;BME280;15464;50.988;10.318;2023-10-31T08:49:55;97385.34;;;10.36;100.00
28181;BME280;15464;50.988;10.318;2023-10-31T08:52:21;97387.31;;;10.42;100.00
28181;BME280;15464;50.988;10.318;2023-10-31T08:54:49;97368.09;;;10.48;100.00
28181;BME280;15464;50.988;10.318;2023-10-31T08:57:15;97376.00;;;10.57;100.00
28181;BME280;15464;50.988;10.318;2023-10-31T08:59:42;97383.13;;;10.56;100.00
28181;BME280;15464;50.988;10.318;2023-10-31T09:02:09;97396.53;;;10.63;100.00
28181;BME280;15464;50.988;10.318;2023-10-31T09:04:36;97392.56;;;10.67;100.00
28181;BME280;15464;50.988;10.318;2023-10-31T09:07:03;97402.19;;;10.60;97.23
28181;BME280;15464;50.988;10.318;2023-10-31T09:09:29;97401.50;;;10.58;99.40
28181;BME280;15464;50.988;10.318;2023-10-31T09:11:56;97420.06;;;10.58;99.71
28181;BME280;15464;50.988;10.318;2023-10-31T09:14:23;97405.50;;;10.62;98.64
28181;BME280;15464;50.988;10.318;2023-10-31T09:16:49;97421.06;;;10.65;98.10
28181;BME280;15464;50.988;10.318;2023-10-31T09:19:16;97425.06;;;10.61;98.35
28181;BME280;15464;50.988;10.318;2023-10-31T09:21:43;97429.38;;;10.54;98.57
28181;BME280;15464;50.988;10.318;2023-10-31T09:24:10;97425.06;;;10.61;100.00
28181;BME280;15464;50.988;10.318;2023-10-31T09:26:41;97431.00;;;10.63;100.00
28181;BME280;15464;50.988;10.318;2023-10-31T09:29:12;97440.66;;;10.56;100.00
28181;BME280;15464;50.988;10.318;2023-10-31T09:31:53;97447.25;;;10.51;100.00
28181;BME280;15464;50.988;10.318;2023-10-31T09:34:20;97448.59;;;10.47;100.00
28181;BME280;15464;50.988;10.318;2023-10-31T09:36:47;97448.09;;;10.52;100.00
28181;BME280;15464;50.988;10.318;2023-10-31T09:39:14;97455.22;;;10.60;100.00
28181;BME280;15464;50.988;10.318;2023-10-31T09:41:41;97454.53;;;10.66;99.67
28181;BME280;15464;50.988;10.318;2023-10-31T09:44:07;97452.56;;;10.60;100.00
28181;BME280;15464;50.988;10.318;2023-10-31T09:46:35;97457.34;;;10.64;99.59
28181;BME280;15464;50.988;10.318;2023-10-31T09:49:02;97459.84;;;10.66;99.31
28181;BME280;15464;50.988;10.318;2023-10-31T09:51:29;97455.53;;;10.65;96.93
28181;BME280;15464;50.988;10.318;2023-10-31T09:53:57;97450.88;;;10.75;99.15
28181;BME280;15464;50.988;10.318;2023-10-31T09:56:24;97458.19;;;10.73;96.28
28181;BME280;15464;50.988;10.318;2023-10-31T09:58:51;97465.09;;;10.82;97.82
28181;BME280;15464;50.988;10.318;2023-10-31T10:01:18;97467.13;;;10.80;95.50
28181;BME280;15464;50.988;10.318;2023-10-31T10:03:44;97466.44;;;10.78;95.29
28181;BME280;15464;50.988;10.318;2023-10-31T10:06:12;97478.88;;;10.85;97.42
28181;BME280;15464;50.988;10.318;2023-10-31T10:08:39;97469.44;;;10.83;95.38
28181;BME280;15464;50.988;10.318;2023-10-31T10:11:06;97473.22;;;10.88;95.76
28181;BME280;15464;50.988;10.318;2023-10-31T10:13:33;97475.25;;;10.86;94.02
28181;BME280;15464;50.988;10.318;2023-10-31T10:16:00;97489.28;;;10.95;95.65
28181;BME280;15464;50.988;10.318;2023-10-31T10:18:32;97469.22;;;11.01;95.04
28181;BME280;15464;50.988;10.318;2023-10-31T10:21:00;97478.31;;;11.06;93.33
28181;BME280;15464;50.988;10.318;2023-10-31T10:23:28;97476.03;;;11.03;93.03
28181;BME280;15464;50.988;10.318;2023-10-31T10:25:56;97475.81;;;11.13;93.95
28181;BME280;15464;50.988;10.318;2023-10-31T10:28:24;97481.47;;;11.18;92.65
28181;BME280;15464;50.988;10.318;2023-10-31T10:30:52;97482.63;;;11.15;94.09
28181;BME280;15464;50.988;10.318;2023-10-31T10:33:20;97483.31;;;11.09;91.50
28181;BME280;15464;50.988;10.318;2023-10-31T10:35:48;97475.84;;;11.05;92.03
28181;BME280;15464;50.988;10.318;2023-10-31T10:38:16;97481.63;;;11.08;91.56
28181;BME280;15464;50.988;10.318;2023-10-31T10:40:46;97484.28;;;11.08;93.32
28181;BME280;15464;50.988;10.318;2023-10-31T10:43:23;97482.94;;;11.12;94.68
28181;BME280;15464;50.988;10.318;2023-10-31T10:45:55;97477.97;;;11.17;96.14
28181;BME280;15464;50.988;10.318;2023-10-31T10:48:26;97488.25;;;11.20;95.34
28181;BME280;15464;50.988;10.318;2023-10-31T10:51:05;97484.44;;;11.23;96.82
28181;BME280;15464;50.988;10.318;2023-10-31T10:53:48;97479.34;;;11.44;99.09
28181;BME280;15464;50.988;10.318;2023-10-31T10:56:24;97479.94;;;11.62;97.93
28181;BME280;15464;50.988;10.318;2023-10-31T10:59:08;97473.47;;;11.65;97.56
28181;BME280;15464;50.988;10.318;2023-10-31T11:01:41;97477.84;;;11.50;94.61
28181;BME280;15464;50.988;10.318;2023-10-31T11:04:09;97475.72;;;11.37;91.38
28181;BME280;15464;50.988;10.318;2023-10-31T11:06:38;97477.22;;;11.40;94.23
28181;BME280;15464;50.988;10.318;2023-10-31T11:09:05;97477.16;;;11.56;95.38
28181;BME280;15464;50.988;10.318;2023-10-31T11:11:32;97479.59;;;11.65;93.00
28181;BME280;15464;50.988;10.318;2023-10-31T11:14:01;97484.31;;;11.55;91.94
28181;BME280;15464;50.988;10.318;2023-10-31T11:16:41;97479.69;;;11.49;91.00
28181;BME280;15464;50.988;10.318;2023-10-31T11:19:10;97472.22;;;11.45;90.05
28181;BME280;15464;50.988;10.318;2023-10-31T11:21:57;97487.81;;;11.48;89.85
28181;BME280;15464;50.988;10.318;2023-10-31T11:24:37;97493.47;;;11.45;88.72
28181;BME280;15464;50.988;10.318;2023-10-31T11:27:06;97489.28;;;11.50;90.81
28181;BME280;15464;50.988;10.318;2023-10-31T11:29:33;97494.28;;;11.45;89.29
28181;BME280;15464;50.988;10.318;2023-10-31T11:32:00;97499.47;;;11.39;88.76
28181;BME280;15464;50.988;10.318;2023-10-31T11:34:27;97513.72;;;11.38;87.12
28181;BME280;15464;50.988;10.318;2023-10-31T11:37:25;97508.63;;;11.36;87.40
28181;BME280;15464;50.988;10.318;2023-10-31T11:40:24;97499.91;;;11.50;88.40
28181;BME280;15464;50.988;10.318;2023-10-31T11:42:53;97500.09;;;11.49;86.69
28181;BME280;15464;50.988;10.318;2023-10-31T11:45:33;97507.69;;;11.60;86.97
28181;BME280;15464;50.988;10.318;2023-10-31T11:48:01;97509.81;;;11.64;85.81
28181;BME280;15464;50.988;10.318;2023-10-31T11:50:27;97507.66;;;11.68;87.54
28181;BME280;15464;50.988;10.318;2023-10-31T11:53:02;97520.44;;;11.64;85.41
28181;BME280;15464;50.988;10.318;2023-10-31T11:55:36;97528.78;;;11.53;83.58
28181;BME280;15464;50.988;10.318;2023-10-31T11:58:19;97519.63;;;11.56;85.50
28181;BME280;15464;50.988;10.318;2023-10-31T12:00:47;97535.41;;;11.57;85.32
28181;BME280;15464;50.988;10.318;2023-10-31T12:03:17;97526.81;;;11.55;86.67
28181;BME280;15464;50.988;10.318;2023-10-31T12:05:57;97532.91;;;11.56;85.93
28181;BME280;15464;50.988;10.318;2023-10-31T12:08:37;97544.88;;;11.60;85.83
28181;BME280;15464;50.988;10.318;2023-10-31T12:13:36;97546.16;;;11.64;85.86
28181;BME280;15464;50.988;10.318;2023-10-31T12:16:04;97543.88;;;11.61;83.54
28181;BME280;15464;50.988;10.318;2023-10-31T12:18:36;97548.31;;;11.68;85.18
28181;BME280;15464;50.988;10.318;2023-10-31T12:21:05;97551.78;;;11.85;83.29
28181;BME280;15464;50.988;10.318;2023-10-31T12:23:34;97556.13;;;12.09;84.93
28181;BME280;15464;50.988;10.318;2023-10-31T12:26:00;97550.41;;;11.89;85.82
28181;BME280;15464;50.988;10.318;2023-10-31T12:28:27;97545.09;;;11.89;87.15
28181;BME280;15464;50.988;10.318;2023-10-31T12:30:55;97565.38;;;11.82;87.88
28181;BME280;15464;50.988;10.318;2023-10-31T12:33:24;97560.44;;;11.79;89.22
28181;BME280;15464;50.988;10.318;2023-10-31T12:35:59;97560.78;;;11.68;88.08
28181;BME280;15464;50.988;10.318;2023-10-31T12:38:27;97566.63;;;11.55;89.28
28181;BME280;15464;50.988;10.318;2023-10-31T12:40:55;97575.75;;;11.53;90.49
28181;BME280;15464;50.988;10.318;2023-10-31T12:43:23;97577.09;;;11.49;90.08
28181;BME280;15464;50.988;10.318;2023-10-31T12:45:51;97583.41;;;11.48;89.80
28181;BME280;15464;50.988;10.318;2023-10-31T12:48:23;97587.75;;;11.41;91.45
28181;BME280;15464;50.988;10.318;2023-10-31T12:51:06;97589.75;;;11.30;92.97
28181;BME280;15464;50.988;10.318;2023-10-31T12:53:35;97593.72;;;11.26;94.15